sensor_id;sensor_type;location;lat;lon;timestamp;pressure;altitude;pressure_sealevel;temperature;humidity
70921;BME280;58572;48.110;19.838;2022-11-15T00:00:31;98257.00;;;4.83;82.85
70921;BME280;58572;48.110;19.838;2022-11-15T00:02:59;98263.13;;;5.19;82.02
70921;BME280;58572;48.110;19.838;2022-11-15T00:05:26;98137.16;;;4.97;78.57
70921;BME280;58572;48.110;19.838;2022-11-15T00:07:53;98251.25;;;5.60;78.21
70921;BME280;58572;48.110;19.838;2022-11-15T00:10:22;98254.25;;;5.47;79.25
70921;BME280;58572;48.110;19.838;2022-11-15T00:12:49;98141.66;;;4.80;78.45
70921;BME280;58572;48.110;19.838;2022-11-15T00:22:00;98255.22;;;5.40;78.63
70921;BME280;58572;48.110;19.838;2022-11-15T00:24:27;98233.13;;;5.27;78.77
70921;BME280;58572;48.110;19.838;2022-11-15T00:26:55;98153.69;;;4.89;78.09
70921;BME280;58572;48.110;19.838;2022-11-15T00:29:22;98255.06;;;5.47;78.75
70921;BME280;58572;48.110;19.838;2022-11-15T00:31:50;98247.56;;;5.49;78.17
70921;BME280;58572;48.110;19.838;2022-11-15T00:34:18;98253.69;;;5.04;79.37
70921;BME280;58572;48.110;19.838;2022-11-15T00:36:45;98114.16;;;4.49;79.42
70921;BME280;58572;48.110;19.838;2022-11-15T00:39:13;98238.59;;;5.60;77.75
70921;BME280;58572;48.110;19.838;2022-11-15T00:41:40;98230.72;;;5.42;78.26
70921;BME280;58572;48.110;19.838;2022-11-15T00:44:08;98103.00;;;4.58;78.81
70921;BME280;58572;48.110;19.838;2022-11-15T00:46:35;98228.09;;;5.47;78.41
70921;BME280;58572;48.110;19.838;2022-11-15T00:49:03;98069.03;;;4.28;78.17
70921;BME280;58572;48.110;19.838;2022-11-15T00:51:30;98225.00;;;5.38;78.20
70921;BME280;58572;48.110;19.838;2022-11-15T00:53:57;98207.81;;;5.28;78.37
70921;BME280;58572;48.110;19.838;2022-11-15T00:56:24;98082.72;;;4.15;79.10
70921;BME280;58572;48.110;19.838;2022-11-15T00:58:52;98022.06;;;3.96;78.58
70921;BME280;58572;48.110;19.838;2022-11-15T01:01:20;98218.38;;;5.18;78.68
70921;BME280;58572;48.110;19.838;2022-11-15T01:03:47;98232.69;;;5.06;79.38
70921;BME280;58572;48.110;19.838;2022-11-15T01:06:14;98217.59;;;4.65;81.97
70921;BME280;58572;48.110;19.838;2022-11-15T01:08:41;98213.06;;;4.42;83.92
70921;BME280;58572;48.110;19.838;2022-11-15T01:11:10;98214.09;;;4.53;83.53
70921;BME280;58572;48.110;19.838;2022-11-15T01:13:39;98210.47;;;4.99;80.02
70921;BME280;58572;48.110;19.838;2022-11-15T01:16:08;98206.22;;;5.43;78.47
70921;BME280;58572;48.110;19.838;2022-11-15T01:18:37;98202.81;;;5.08;80.27
70921;BME280;58572;48.110;19.838;2022-11-15T01:21:06;98206.34;;;5.08;79.05
70921;BME280;58572;48.110;19.838;2022-11-15T01:23:33;98203.06;;;5.06;80.60
70921;BME280;58572;48.110;19.838;2022-11-15T01:26:01;98198.50;;;4.67;81.33
70921;BME280;58572;48.110;19.838;2022-11-15T01:28:30;98199.34;;;4.56;83.05
70921;BME280;58572;48.110;19.838;2022-11-15T01:30:58;98086.41;;;4.49;79.31
70921;BME280;58572;48.110;19.838;2022-11-15T01:33:25;98198.72;;;5.05;82.48
70921;BME280;58572;48.110;19.838;2022-11-15T01:35:54;98195.94;;;5.00;83.85
70921;BME280;58572;48.110;19.838;2022-11-15T01:38:21;98188.28;;;5.21;84.15
70921;BME280;58572;48.110;19.838;2022-11-15T01:40:49;98194.34;;;5.16;84.50
70921;BME280;58572;48.110;19.838;2022-11-15T01:43:20;98192.44;;;5.28;84.32
70921;BME280;58572;48.110;19.838;2022-11-15T01:45:50;98101.19;;;4.75;84.44
70921;BME280;58572;48.110;19.838;2022-11-15T01:48:21;98190.72;;;5.67;79.43
70921;BME280;58572;48.110;19.838;2022-11-15T01:50:49;98130.50;;;5.17;77.42
70921;BME280;58572;48.110;19.838;2022-11-15T01:53:21;98189.84;;;5.33;78.53
70921;BME280;58572;48.110;19.838;2022-11-15T01:55:50;98126.56;;;4.79;81.90
70921;BME280;58572;48.110;19.838;2022-11-15T01:58:17;98192.97;;;5.42;78.00
70921;BME280;58572;48.110;19.838;2022-11-15T02:00:45;98196.44;;;5.26;78.69
70921;BME280;58572;48.110;19.838;2022-11-15T02:03:13;98194.25;;;5.23;79.27
70921;BME280;58572;48.110;19.838;2022-11-15T02:05:41;98107.91;;;4.61;78.91
70921;BME280;58572;48.110;19.838;2022-11-15T02:08:10;98122.25;;;4.38;80.30
70921;BME280;58572;48.110;19.838;2022-11-15T02:10:46;98175.97;;;4.21;84.10
70921;BME280;58572;48.110;19.838;2022-11-15T02:13:14;98156.25;;;4.56;82.21
70921;BME280;58572;48.110;19.838;2022-11-15T02:15:49;98178.53;;;5.20;79.00
70921;BME280;58572;48.110;19.838;2022-11-15T02:18:26;98176.69;;;4.28;84.31
70921;BME280;58572;48.110;19.838;2022-11-15T02:21:06;98172.47;;;4.32;86.14
70921;BME280;58572;48.110;19.838;2022-11-15T02:24:00;98121.28;;;4.44;85.63
70921;BME280;58572;48.110;19.838;2022-11-15T02:29:43;98162.50;;;5.13;81.92
70921;BME280;58572;48.110;19.838;2022-11-15T02:32:20;98165.38;;;4.95;84.19
70921;BME280;58572;48.110;19.838;2022-11-15T02:34:53;98165.97;;;4.97;85.54
70921;BME280;58572;48.110;19.838;2022-11-15T02:37:30;98173.22;;;4.96;85.91
70921;BME280;58572;48.110;19.838;2022-11-15T02:40:02;97996.13;;;3.90;85.78
70921;BME280;58572;48.110;19.838;2022-11-15T02:42:36;98158.81;;;5.31;86.05
70921;BME280;58572;48.110;19.838;2022-11-15T02:45:26;98154.91;;;5.55;79.87
70921;BME280;58572;48.110;19.838;2022-11-15T02:47:58;98103.28;;;4.73;81.38
70921;BME280;58572;48.110;19.838;2022-11-15T02:50:29;98155.00;;;5.60;79.09
70921;BME280;58572;48.110;19.838;2022-11-15T02:52:59;98084.66;;;5.00;78.91
70921;BME280;58572;48.110;19.838;2022-11-15T02:55:29;98157.72;;;5.03;80.80
70921;BME280;58572;48.110;19.838;2022-11-15T02:58:19;98091.56;;;4.79;79.83
70921;BME280;58572;48.110;19.838;2022-11-15T03:00:58;98162.84;;;4.88;84.07
70921;BME280;58572;48.110;19.838;2022-11-15T03:03:38;98075.50;;;4.56;84.91
70921;BME280;58572;48.110;19.838;2022-11-15T03:06:16;98147.31;;;5.69;83.56
70921;BME280;58572;48.110;19.838;2022-11-15T03:08:54;98146.66;;;5.62;78.53
70921;BME280;58572;48.110;19.838;2022-11-15T03:11:23;98149.28;;;5.73;78.54
70921;BME280;58572;48.110;19.838;2022-11-15T03:13:56;98144.53;;;5.81;77.51
70921;BME280;58572;48.110;19.838;2022-11-15T03:16:28;98152.63;;;5.81;77.89
70921;BME280;58572;48.110;19.838;2022-11-15T03:19:03;98149.34;;;5.78;77.20
70921;BME280;58572;48.110;19.838;2022-11-15T03:21:33;98148.69;;;6.05;76.42
70921;BME280;58572;48.110;19.838;2022-11-15T03:24:04;98147.72;;;5.94;76.52
70921;BME280;58572;48.110;19.838;2022-11-15T03:26:33;98149.38;;;5.95;76.57
70921;BME280;58572;48.110;19.838;2022-11-15T03:29:04;98149.69;;;5.99;77.85
70921;BME280;58572;48.110;19.838;2022-11-15T03:31:38;98041.31;;;5.01;77.51
70921;BME280;58572;48.110;19.838;2022-11-15T03:34:36;98152.38;;;5.99;77.07
70921;BME280;58572;48.110;19.838;2022-11-15T03:37:05;98150.09;;;5.91;78.85
70921;BME280;58572;48.110;19.838;2022-11-15T03:39:33;98142.97;;;5.68;81.01
70921;BME280;58572;48.110;19.838;2022-11-15T03:42:11;98142.72;;;5.69;78.19
70921;BME280;58572;48.110;19.838;2022-11-15T03:44:46;98146.25;;;5.87;77.86
70921;BME280;58572;48.110;19.838;2022-11-15T03:47:17;98151.88;;;5.68;78.37
70921;BME280;58572;48.110;19.838;2022-11-15T03:49:50;98091.66;;;5.46;78.04
70921;BME280;58572;48.110;19.838;2022-11-15T03:52:19;98157.84;;;6.04;77.12
70921;BME280;58572;48.110;19.838;2022-11-15T03:54:51;98134.97;;;5.90;76.97
70921;BME280;58572;48.110;19.838;2022-11-15T03:57:19;98135.13;;;5.50;79.02
70921;BME280;58572;48.110;19.838;2022-11-15T03:59:46;98121.88;;;5.82;77.99
70921;BME280;58572;48.110;19.838;2022-11-15T04:02:14;98115.34;;;5.77;77.33
70921;BME280;58572;48.110;19.838;2022-11-15T04:04:41;98114.94;;;5.86;77.57
70921;BME280;58572;48.110;19.838;2022-11-15T04:07:11;98116.81;;;5.68;80.41
70921;BME280;58572;48.110;19.838;2022-11-15T04:09:38;98106.84;;;5.86;77.52
70921;BME280;58572;48.110;19.838;2022-11-15T04:12:19;97831.09;;;4.24;77.57
70921;BME280;58572;48.110;19.838;2022-11-15T04:14:56;98030.88;;;5.55;76.58
70921;BME280;58572;48.110;19.838;2022-11-15T04:17:38;98110.00;;;5.16;82.49
70921;BME280;58572;48.110;19.838;2022-11-15T04:20:08;98107.69;;;5.07;84.85
70921;BME280;58572;48.110;19.838;2022-11-15T04:22:57;98100.00;;;5.28;85.23
70921;BME280;58572;48.110;19.838;2022-11-15T04:25:42;98101.44;;;5.86;78.68
70921;BME280;58572;48.110;19.838;2022-11-15T04:28:11;98096.84;;;6.03;77.38
70921;BME280;58572;48.110;19.838;2022-11-15T04:30:38;98088.19;;;6.01;77.61
70921;BME280;58572;48.110;19.838;2022-11-15T04:33:05;98089.53;;;5.48;82.70
70921;BME280;58572;48.110;19.838;2022-11-15T04:35:32;98070.00;;;5.41;83.89
70921;BME280;58572;48.110;19.838;2022-11-15T04:38:02;98068.16;;;5.97;83.67
70921;BME280;58572;48.110;19.838;2022-11-15T04:40:29;98077.03;;;6.14;78.68
70921;BME280;58572;48.110;19.838;2022-11-15T04:42:56;98082.44;;;6.14;77.86
70921;BME280;58572;48.110;19.838;2022-11-15T04:45:23;98076.25;;;5.97;81.75
70921;BME280;58572;48.110;19.838;2022-11-15T04:47:50;98081.34;;;5.76;79.23
70921;BME280;58572;48.110;19.838;2022-11-15T04:50:18;98073.13;;;6.05;77.50
70921;BME280;58572;48.110;19.838;2022-11-15T04:52:50;98074.13;;;5.99;80.64
70921;BME280;58572;48.110;19.838;2022-11-15T04:55:20;97978.44;;;5.46;78.00
70921;BME280;58572;48.110;19.838;2022-11-15T04:57:48;98066.47;;;5.91;78.16
70921;BME280;58572;48.110;19.838;2022-11-15T05:00:23;98072.19;;;5.77;79.49
70921;BME280;58572;48.110;19.838;2022-11-15T05:02:52;98076.09;;;5.87;79.02
70921;BME280;58572;48.110;19.838;2022-11-15T05:05:36;98064.03;;;5.72;81.15
70921;BME280;58572;48.110;19.838;2022-11-15T05:08:03;98065.97;;;5.94;79.07
70921;BME280;58572;48.110;19.838;2022-11-15T05:10:32;98065.16;;;5.93;78.60
70921;BME280;58572;48.110;19.838;2022-11-15T05:12:59;98063.34;;;5.82;79.71
70921;BME280;58572;48.110;19.838;2022-11-15T05:15:27;98057.19;;;5.48;81.46
70921;BME280;58572;48.110;19.838;2022-11-15T05:17:57;98046.66;;;6.02;78.66
70921;BME280;58572;48.110;19.838;2022-11-15T05:20:24;98046.16;;;6.05;77.60
70921;BME280;58572;48.110;19.838;2022-11-15T05:22:53;98044.47;;;5.82;79.66
70921;BME280;58572;48.110;19.838;2022-11-15T05:25:20;98044.13;;;5.23;84.01
70921;BME280;58572;48.110;19.838;2022-11-15T05:27:49;98048.69;;;5.23;85.61
70921;BME280;58572;48.110;19.838;2022-11-15T05:30:17;98047.66;;;5.96;83.34
70921;BME280;58572;48.110;19.838;2022-11-15T05:32:44;97985.66;;;5.62;79.79
70921;BME280;58572;48.110;19.838;2022-11-15T05:35:13;98041.25;;;6.02;79.09
70921;BME280;58572;48.110;19.838;2022-11-15T05:37:43;97984.66;;;5.30;81.53
70921;BME280;58572;48.110;19.838;2022-11-15T05:40:10;98045.28;;;5.83;81.02
70921;BME280;58572;48.110;19.838;2022-11-15T05:56:24;98049.75;;;6.32;78.29
70921;BME280;58572;48.110;19.838;2022-11-15T05:58:53;98040.91;;;6.37;76.93
70921;BME280;58572;48.110;19.838;2022-11-15T06:01:21;98041.31;;;6.51;77.40
70921;BME280;58572;48.110;19.838;2022-11-15T06:03:49;98039.75;;;6.11;78.06
70921;BME280;58572;48.110;19.838;2022-11-15T06:06:16;98039.63;;;6.23;77.41
70921;BME280;58572;48.110;19.838;2022-11-15T06:08:43;98041.19;;;6.19;78.58
70921;BME280;58572;48.110;19.838;2022-11-15T06:11:10;98046.41;;;5.87;79.52
70921;BME280;58572;48.110;19.838;2022-11-15T06:13:39;98034.91;;;5.91;79.50
70921;BME280;58572;48.110;19.838;2022-11-15T06:16:06;98034.59;;;6.09;77.81
70921;BME280;58572;48.110;19.838;2022-11-15T06:18:34;97961.13;;;6.02;77.37
70921;BME280;58572;48.110;19.838;2022-11-15T06:21:01;98038.34;;;6.25;77.12
70921;BME280;58572;48.110;19.838;2022-11-15T06:23:32;98033.31;;;6.34;77.77
70921;BME280;58572;48.110;19.838;2022-11-15T06:26:01;97982.00;;;5.52;79.66
70921;BME280;58572;48.110;19.838;2022-11-15T06:28:28;97975.13;;;5.83;78.48
70921;BME280;58572;48.110;19.838;2022-11-15T06:31:02;98020.91;;;6.16;78.08
70921;BME280;58572;48.110;19.838;2022-11-15T06:33:29;98043.25;;;5.90;81.31
70921;BME280;58572;48.110;19.838;2022-11-15T06:36:00;97948.41;;;5.59;78.82
70921;BME280;58572;48.110;19.838;2022-11-15T06:38:27;98045.31;;;6.70;78.50
70921;BME280;58572;48.110;19.838;2022-11-15T06:40:55;98049.91;;;6.04;81.15
70921;BME280;58572;48.110;19.838;2022-11-15T06:43:22;98041.38;;;6.12;79.86
70921;BME280;58572;48.110;19.838;2022-11-15T06:45:49;98051.19;;;6.40;79.43
70921;BME280;58572;48.110;19.838;2022-11-15T06:48:18;98055.72;;;6.34;78.82
70921;BME280;58572;48.110;19.838;2022-11-15T06:50:50;97990.81;;;6.24;76.29
70921;BME280;58572;48.110;19.838;2022-11-15T06:53:17;97987.63;;;5.89;79.10
70921;BME280;58572;48.110;19.838;2022-11-15T06:55:45;98056.56;;;6.18;82.24
70921;BME280;58572;48.110;19.838;2022-11-15T06:58:12;98061.81;;;6.47;80.72
70921;BME280;58572;48.110;19.838;2022-11-15T07:00:39;98060.44;;;6.98;77.28
70921;BME280;58572;48.110;19.838;2022-11-15T07:03:06;98051.91;;;6.79;77.71
70921;BME280;58572;48.110;19.838;2022-11-15T07:05:35;98045.06;;;6.98;78.07
70921;BME280;58572;48.110;19.838;2022-11-15T07:08:03;98049.38;;;6.46;81.74
70921;BME280;58572;48.110;19.838;2022-11-15T07:10:30;98062.63;;;6.25;81.69
70921;BME280;58572;48.110;19.838;2022-11-15T07:12:57;97917.31;;;5.73;83.45
70921;BME280;58572;48.110;19.838;2022-11-15T07:15:25;98040.25;;;7.05;80.93
70921;BME280;58572;48.110;19.838;2022-11-15T07:17:52;98039.88;;;7.24;80.02
70921;BME280;58572;48.110;19.838;2022-11-15T07:20:19;98031.94;;;7.44;78.49
70921;BME280;58572;48.110;19.838;2022-11-15T07:22:48;97788.84;;;5.89;78.68
70921;BME280;58572;48.110;19.838;2022-11-15T07:25:15;98029.00;;;7.19;77.76
70921;BME280;58572;48.110;19.838;2022-11-15T07:27:42;98017.38;;;7.18;77.62
70921;BME280;58572;48.110;19.838;2022-11-15T07:30:10;98028.59;;;7.69;76.51
70921;BME280;58572;48.110;19.838;2022-11-15T07:32:38;98030.91;;;7.50;80.30
70921;BME280;58572;48.110;19.838;2022-11-15T07:35:05;98027.22;;;7.66;79.83
70921;BME280;58572;48.110;19.838;2022-11-15T07:37:32;98030.44;;;7.63;76.98
70921;BME280;58572;48.110;19.838;2022-11-15T07:40:04;98035.09;;;7.73;76.25
70921;BME280;58572;48.110;19.838;2022-11-15T07:42:31;97928.34;;;7.07;78.38
70921;BME280;58572;48.110;19.838;2022-11-15T07:45:16;98019.75;;;7.84;77.08
70921;BME280;58572;48.110;19.838;2022-11-15T07:47:45;98018.78;;;8.10;77.23
70921;BME280;58572;48.110;19.838;2022-11-15T07:50:12;97889.53;;;7.23;77.82
70921;BME280;58572;48.110;19.838;2022-11-15T07:52:40;98015.88;;;8.22;77.26
70921;BME280;58572;48.110;19.838;2022-11-15T07:55:09;97914.09;;;7.58;77.34
70921;BME280;58572;48.110;19.838;2022-11-15T07:57:36;98009.03;;;8.09;78.01
70921;BME280;58572;48.110;19.838;2022-11-15T08:00:05;98015.00;;;8.11;77.18
70921;BME280;58572;48.110;19.838;2022-11-15T08:02:32;98002.06;;;8.23;76.55
70921;BME280;58572;48.110;19.838;2022-11-15T08:04:59;97979.28;;;8.19;77.39
70921;BME280;58572;48.110;19.838;2022-11-15T08:07:29;98008.53;;;8.17;76.59
70921;BME280;58572;48.110;19.838;2022-11-15T08:09:57;98011.19;;;8.07;81.43
70921;BME280;58572;48.110;19.838;2022-11-15T08:12:28;98016.06;;;8.05;78.01
70921;BME280;58572;48.110;19.838;2022-11-15T08:14:55;98007.97;;;8.10;81.75
70921;BME280;58572;48.110;19.838;2022-11-15T08:17:24;97985.22;;;8.06;81.85
70921;BME280;58572;48.110;19.838;2022-11-15T08:19:51;97996.81;;;8.69;78.88
70921;BME280;58572;48.110;19.838;2022-11-15T08:22:19;97990.03;;;8.56;80.39
70921;BME280;58572;48.110;19.838;2022-11-15T08:24:46;97983.00;;;8.60;78.30
70921;BME280;58572;48.110;19.838;2022-11-15T08:27:13;97981.13;;;8.91;79.51
70921;BME280;58572;48.110;19.838;2022-11-15T08:29:43;97971.31;;;8.50;81.00
70921;BME280;58572;48.110;19.838;2022-11-15T08:32:10;97843.00;;;7.78;81.81
70921;BME280;58572;48.110;19.838;2022-11-15T08:34:38;97882.84;;;8.03;81.67
70921;BME280;58572;48.110;19.838;2022-11-15T08:37:05;97882.47;;;8.52;81.23
70921;BME280;58572;48.110;19.838;2022-11-15T08:39:32;97953.44;;;9.35;72.79
70921;BME280;58572;48.110;19.838;2022-11-15T08:41:59;97949.94;;;8.84;77.74
70921;BME280;58572;48.110;19.838;2022-11-15T08:44:26;97952.94;;;9.08;78.30
70921;BME280;58572;48.110;19.838;2022-11-15T08:46:55;97952.91;;;9.48;75.69
70921;BME280;58572;48.110;19.838;2022-11-15T08:49:23;97922.56;;;8.95;79.06
70921;BME280;58572;48.110;19.838;2022-11-15T08:51:50;97959.69;;;9.31;79.86
70921;BME280;58572;48.110;19.838;2022-11-15T08:54:17;97970.19;;;9.83;76.34
70921;BME280;58572;48.110;19.838;2022-11-15T08:56:44;97965.34;;;9.70;76.46
70921;BME280;58572;48.110;19.838;2022-11-15T08:59:12;97960.94;;;9.89;73.69
70921;BME280;58572;48.110;19.838;2022-11-15T09:01:39;97969.16;;;9.58;72.15
70921;BME280;58572;48.110;19.838;2022-11-15T09:04:08;97971.91;;;9.03;76.04
70921;BME280;58572;48.110;19.838;2022-11-15T09:06:35;97973.00;;;8.86;76.57
70921;BME280;58572;48.110;19.838;2022-11-15T09:09:03;97977.34;;;8.98;77.57
70921;BME280;58572;48.110;19.838;2022-11-15T09:11:30;97968.66;;;8.75;77.62
70921;BME280;58572;48.110;19.838;2022-11-15T09:13:57;97967.25;;;8.52;78.88
70921;BME280;58572;48.110;19.838;2022-11-15T09:16:24;97963.50;;;9.04;78.63
70921;BME280;58572;48.110;19.838;2022-11-15T09:18:52;97963.22;;;9.46;78.11
70921;BME280;58572;48.110;19.838;2022-11-15T09:21:21;97962.66;;;9.54;75.62
70921;BME280;58572;48.110;19.838;2022-11-15T09:23:50;97954.56;;;8.99;76.93
70921;BME280;58572;48.110;19.838;2022-11-15T09:26:18;97953.47;;;9.30;77.06
70921;BME280;58572;48.110;19.838;2022-11-15T09:28:45;97953.44;;;9.50;75.95
70921;BME280;58572;48.110;19.838;2022-11-15T09:31:12;97952.66;;;9.14;77.46
70921;BME280;58572;48.110;19.838;2022-11-15T09:33:39;97951.28;;;9.47;77.45
70921;BME280;58572;48.110;19.838;2022-11-15T09:36:07;97940.19;;;10.13;75.50
70921;BME280;58572;48.110;19.838;2022-11-15T09:38:37;97892.41;;;9.43;75.25
70921;BME280;58572;48.110;19.838;2022-11-15T09:41:25;97933.81;;;9.84;76.19
70921;BME280;58572;48.110;19.838;2022-11-15T09:44:06;97930.81;;;9.85;76.03
70921;BME280;58572;48.110;19.838;2022-11-15T09:46:44;97924.56;;;9.85;74.58
70921;BME280;58572;48.110;19.838;2022-11-15T09:49:17;97924.81;;;9.88;74.92
70921;BME280;58572;48.110;19.838;2022-11-15T09:51:47;97931.38;;;9.82;74.97
70921;BME280;58572;48.110;19.838;2022-11-15T09:54:23;97909.34;;;9.89;73.66
70921;BME280;58572;48.110;19.838;2022-11-15T09:56:53;97909.75;;;10.16;73.98
70921;BME280;58572;48.110;19.838;2022-11-15T09:59:37;97908.66;;;9.58;75.34
70921;BME280;58572;48.110;19.838;2022-11-15T10:02:17;97583.78;;;7.45;74.33
70921;BME280;58572;48.110;19.838;2022-11-15T10:04:48;97902.19;;;9.44;75.89
70921;BME280;58572;48.110;19.838;2022-11-15T10:07:21;97908.94;;;9.51;75.75
70921;BME280;58572;48.110;19.838;2022-11-15T10:09:55;97890.06;;;9.90;73.73
70921;BME280;58572;48.110;19.838;2022-11-15T10:12:25;97913.28;;;9.52;74.97
70921;BME280;58572;48.110;19.838;2022-11-15T10:15:00;97907.56;;;10.23;71.98
70921;BME280;58572;48.110;19.838;2022-11-15T10:17:45;97908.13;;;10.15;69.31
70921;BME280;58572;48.110;19.838;2022-11-15T10:20:21;97903.69;;;9.75;68.99
70921;BME280;58572;48.110;19.838;2022-11-15T10:22:50;97842.66;;;9.68;72.98
70921;BME280;58572;48.110;19.838;2022-11-15T10:25:22;97898.88;;;10.27;72.23
70921;BME280;58572;48.110;19.838;2022-11-15T10:27:54;97897.25;;;10.26;70.72
70921;BME280;58572;48.110;19.838;2022-11-15T10:30:30;97875.91;;;9.99;72.56
70921;BME280;58572;48.110;19.838;2022-11-15T10:32:58;97884.97;;;10.33;69.49
70921;BME280;58572;48.110;19.838;2022-11-15T10:35:35;97877.56;;;9.89;70.20
70921;BME280;58572;48.110;19.838;2022-11-15T10:38:05;97880.81;;;9.97;72.48
70921;BME280;58572;48.110;19.838;2022-11-15T10:40:35;97873.41;;;10.07;71.00
70921;BME280;58572;48.110;19.838;2022-11-15T10:43:13;97869.03;;;10.11;71.95
70921;BME280;58572;48.110;19.838;2022-11-15T10:45:42;97857.94;;;10.08;70.69
70921;BME280;58572;48.110;19.838;2022-11-15T10:48:26;97857.66;;;10.09;71.81
70921;BME280;58572;48.110;19.838;2022-11-15T10:50:54;97858.22;;;10.01;68.78
70921;BME280;58572;48.110;19.838;2022-11-15T10:53:26;97783.75;;;10.12;68.61
70921;BME280;58572;48.110;19.838;2022-11-15T10:55:57;97853.31;;;10.08;68.10
70921;BME280;58572;48.110;19.838;2022-11-15T10:58:33;97794.75;;;9.92;69.97
70921;BME280;58572;48.110;19.838;2022-11-15T11:01:16;97851.53;;;10.33;72.12
70921;BME280;58572;48.110;19.838;2022-11-15T11:03:45;97856.94;;;10.38;70.35
70921;BME280;58572;48.110;19.838;2022-11-15T11:06:14;97846.59;;;10.45;69.73
70921;BME280;58572;48.110;19.838;2022-11-15T11:08:55;97851.34;;;10.63;68.84
70921;BME280;58572;48.110;19.838;2022-11-15T11:11:24;97766.38;;;9.69;71.23
70921;BME280;58572;48.110;19.838;2022-11-15T11:13:52;97833.88;;;9.86;68.81
70921;BME280;58572;48.110;19.838;2022-11-15T11:16:32;97834.22;;;10.23;70.55
70921;BME280;58572;48.110;19.838;2022-11-15T11:19:06;97835.47;;;9.92;71.10
70921;BME280;58572;48.110;19.838;2022-11-15T11:21:43;97824.81;;;9.51;71.09
70921;BME280;58572;48.110;19.838;2022-11-15T11:24:19;97833.13;;;9.75;70.24
70921;BME280;58572;48.110;19.838;2022-11-15T11:27:04;97823.53;;;9.93;70.73
70921;BME280;58572;48.110;19.838;2022-11-15T11:29:42;97820.22;;;10.01;71.95
70921;BME280;58572;48.110;19.838;2022-11-15T11:32:24;97824.28;;;9.49;76.07
70921;BME280;58572;48.110;19.838;2022-11-15T11:35:00;97818.84;;;9.49;75.37
70921;BME280;58572;48.110;19.838;2022-11-15T11:37:34;97810.19;;;9.47;76.07
70921;BME280;58572;48.110;19.838;2022-11-15T11:40:06;97821.84;;;9.48;78.05
70921;BME280;58572;48.110;19.838;2022-11-15T11:42:44;97820.19;;;9.52;77.08
70921;BME280;58572;48.110;19.838;2022-11-15T11:45:18;97816.41;;;9.53;75.64
70921;BME280;58572;48.110;19.838;2022-11-15T11:47:54;97690.41;;;9.15;75.30
70921;BME280;58572;48.110;19.838;2022-11-15T11:50:26;97800.53;;;10.24;74.51
70921;BME280;58572;48.110;19.838;2022-11-15T11:52:57;97795.50;;;10.47;75.22
70921;BME280;58572;48.110;19.838;2022-11-15T11:55:29;97745.53;;;10.38;72.86
70921;BME280;58572;48.110;19.838;2022-11-15T11:58:05;97785.63;;;10.85;72.36
70921;BME280;58572;48.110;19.838;2022-11-15T12:00:39;97781.09;;;10.75;73.91
70921;BME280;58572;48.110;19.838;2022-11-15T12:03:12;97780.63;;;10.34;73.53
70921;BME280;58572;48.110;19.838;2022-11-15T12:05:44;97779.31;;;9.82;74.67
70921;BME280;58572;48.110;19.838;2022-11-15T12:08:27;97789.56;;;9.46;75.95
70921;BME280;58572;48.110;19.838;2022-11-15T12:11:02;97782.00;;;10.32;74.26
70921;BME280;58572;48.110;19.838;2022-11-15T12:13:33;97789.66;;;9.80;77.28
70921;BME280;58572;48.110;19.838;2022-11-15T12:16:06;97789.13;;;9.78;76.34
70921;BME280;58572;48.110;19.838;2022-11-15T12:18:35;97782.81;;;9.88;77.00
70921;BME280;58572;48.110;19.838;2022-11-15T12:21:06;97781.75;;;9.84;76.77
70921;BME280;58572;48.110;19.838;2022-11-15T12:23:42;97778.53;;;9.77;77.41
70921;BME280;58572;48.110;19.838;2022-11-15T12:26:16;97767.53;;;10.02;76.17
70921;BME280;58572;48.110;19.838;2022-11-15T12:28:49;97743.81;;;9.74;75.79
70921;BME280;58572;48.110;19.838;2022-11-15T12:31:24;97763.47;;;10.00;75.17
70921;BME280;58572;48.110;19.838;2022-11-15T12:33:56;97700.53;;;9.53;75.70
70921;BME280;58572;48.110;19.838;2022-11-15T12:36:35;97762.09;;;10.02;75.20
70921;BME280;58572;48.110;19.838;2022-11-15T12:39:04;97761.31;;;10.36;73.73
70921;BME280;58572;48.110;19.838;2022-11-15T12:41:32;97765.25;;;10.14;74.99
70921;BME280;58572;48.110;19.838;2022-11-15T12:44:02;97751.47;;;10.06;75.04
70921;BME280;58572;48.110;19.838;2022-11-15T12:49:48;97714.41;;;9.86;75.40
70921;BME280;58572;48.110;19.838;2022-11-15T12:52:15;97738.13;;;10.09;75.32
70921;BME280;58572;48.110;19.838;2022-11-15T12:55:01;97732.75;;;10.38;73.58
70921;BME280;58572;48.110;19.838;2022-11-15T12:57:43;97720.69;;;10.20;75.27
70921;BME280;58572;48.110;19.838;2022-11-15T13:00:39;97717.56;;;9.98;75.65
70921;BME280;58572;48.110;19.838;2022-11-15T13:03:25;97721.88;;;10.04;75.05
70921;BME280;58572;48.110;19.838;2022-11-15T13:05:59;97733.69;;;9.40;78.90
70921;BME280;58572;48.110;19.838;2022-11-15T13:08:53;97723.84;;;9.93;76.31
70921;BME280;58572;48.110;19.838;2022-11-15T13:11:49;97728.50;;;9.88;76.44
70921;BME280;58572;48.110;19.838;2022-11-15T13:14:42;97729.28;;;10.33;74.83
70921;BME280;58572;48.110;19.838;2022-11-15T13:17:23;97723.09;;;10.56;74.10
70921;BME280;58572;48.110;19.838;2022-11-15T13:19:57;97718.97;;;10.30;74.83
70921;BME280;58572;48.110;19.838;2022-11-15T13:22:25;97711.06;;;10.33;74.15
70921;BME280;58572;48.110;19.838;2022-11-15T13:25:19;97716.44;;;10.43;73.70
70921;BME280;58572;48.110;19.838;2022-11-15T13:27:51;97711.09;;;10.28;74.62
70921;BME280;58572;48.110;19.838;2022-11-15T13:30:21;97712.50;;;10.26;74.79
70921;BME280;58572;48.110;19.838;2022-11-15T13:32:52;97691.78;;;9.62;77.81
70921;BME280;58572;48.110;19.838;2022-11-15T13:35:24;97691.59;;;9.48;78.60
70921;BME280;58572;48.110;19.838;2022-11-15T13:37:53;97698.97;;;9.42;79.93
70921;BME280;58572;48.110;19.838;2022-11-15T13:40:24;97700.25;;;8.95;82.53
70921;BME280;58572;48.110;19.838;2022-11-15T13:42:53;97702.97;;;8.90;82.78
70921;BME280;58572;48.110;19.838;2022-11-15T13:45:23;97705.28;;;8.48;82.58
70921;BME280;58572;48.110;19.838;2022-11-15T13:47:57;97699.63;;;9.14;80.45